Time;durP1;ratioP1;P1;durP2;ratioP2;P2;SDS_P1;SDS_P2;PMS_P1;PMS_P2;Temp;Humidity;BMP_temperature;BMP_pressure;BME280_temperature;BME280_humidity;BME280_pressure;Samples;Min_cycle;Max_cycle;Signal;HPM_P1;HPM_P2
2022/05/26 00:00:47;;;;;;;4.65;3.80;;;15.50;89.10;;;;;;2079011;28;20395;-70
2022/05/26 00:01:48;;;;;;;5.10;3.60;;;15.50;89.20;;;;;;2079336;28;20053;-71
2022/05/26 00:02:49;;;;;;;3.83;3.22;;;15.50;88.60;;;;;;2088306;28;20028;-71
2022/05/26 00:03:50;;;;;;;5.72;3.67;;;15.50;88.90;;;;;;2087932;28;20033;-70
2022/05/26 00:04:51;;;;;;;4.05;3.63;;;15.50;89.00;;;;;;2088274;28;20047;-71
2022/05/26 00:05:52;;;;;;;4.60;3.80;;;15.50;89.20;;;;;;2088223;28;20045;-70
2022/05/26 00:06:53;;;;;;;4.22;3.53;;;15.50;89.20;;;;;;2088266;28;20031;-72
2022/05/26 00:07:54;;;;;;;4.53;3.47;;;15.50;88.90;;;;;;2088278;28;20025;-71
2022/05/26 00:08:55;;;;;;;4.35;3.28;;;15.60;88.70;;;;;;2088214;28;20025;-71
2022/05/26 00:09:55;;;;;;;4.07;3.33;;;15.60;88.70;;;;;;2088221;28;20029;-71
2022/05/26 00:10:56;;;;;;;6.05;3.65;;;15.60;88.70;;;;;;2088272;28;20502;-70
2022/05/26 00:11:56;;;;;;;4.40;3.53;;;15.60;88.60;;;;;;2088219;28;20487;-71
2022/05/26 00:12:57;;;;;;;4.15;3.70;;;15.60;88.70;;;;;;2087246;28;20045;-70
2022/05/26 00:14:07;;;;;;;5.72;3.53;;;15.70;88.80;;;;;;2087587;28;20471;-70
2022/05/26 00:15:08;;;;;;;4.78;3.80;;;15.70;89.00;;;;;;2087544;28;20495;-71
2022/05/26 00:16:09;;;;;;;4.50;3.67;;;15.70;89.00;;;;;;2087478;28;20021;-70
2022/05/26 00:17:10;;;;;;;4.70;3.63;;;15.70;88.90;;;;;;2087574;28;20029;-71
2022/05/26 00:18:10;;;;;;;4.57;3.55;;;15.70;89.10;;;;;;2087467;28;20059;-71
2022/05/26 00:19:14;;;;;;;4.10;3.60;;;15.70;89.10;;;;;;2087471;28;20098;-70
2022/05/26 00:20:15;;;;;;;3.75;3.30;;;15.80;88.90;;;;;;2087992;28;20479;-70
2022/05/26 00:21:16;;;;;;;4.22;3.50;;;15.80;88.60;;;;;;2087737;28;20124;-70
2022/05/26 00:22:16;;;;;;;4.97;3.50;;;15.80;88.40;;;;;;2088017;28;20066;-71
2022/05/26 00:23:17;;;;;;;4.57;3.20;;;15.80;88.40;;;;;;2087746;28;20167;-71
2022/05/26 00:24:19;;;;;;;3.97;3.10;;;15.80;88.00;;;;;;2087937;28;20035;-70
2022/05/26 00:25:19;;;;;;;4.88;3.20;;;15.80;87.80;;;;;;2087967;28;20082;-71
2022/05/26 00:26:20;;;;;;;3.60;2.85;;;15.80;86.90;;;;;;2087279;28;20049;-71
2022/05/26 00:27:21;;;;;;;3.92;2.78;;;15.80;86.60;;;;;;2087349;28;20031;-70
2022/05/26 00:28:21;;;;;;;5.30;2.80;;;15.80;86.30;;;;;;2087972;28;20017;-71
2022/05/26 00:29:22;;;;;;;4.53;3.22;;;15.80;85.70;;;;;;2087966;28;20025;-71
2022/05/26 00:30:23;;;;;;;3.95;2.65;;;15.80;85.50;;;;;;2087220;28;20423;-70
2022/05/26 00:31:24;;;;;;;3.75;2.83;;;15.80;85.70;;;;;;2087338;28;20024;-71
2022/05/26 00:32:24;;;;;;;4.32;3.03;;;15.80;86.00;;;;;;2087697;28;20544;-71
2022/05/26 00:33:25;;;;;;;3.67;2.53;;;15.80;86.20;;;;;;2087961;28;20025;-71
2022/05/26 00:34:26;;;;;;;3.72;2.83;;;15.70;85.80;;;;;;2088162;28;20033;-71
2022/05/26 00:35:27;;;;;;;2.92;2.63;;;15.70;85.60;;;;;;2087259;28;20060;-71
2022/05/26 00:36:44;;;;;;;3.60;2.45;;;15.70;85.20;;;;;;2087396;28;20084;-70
2022/05/26 00:37:46;;;;;;;2.58;2.17;;;15.70;85.00;;;;;;2087995;28;20040;-70
2022/05/26 00:38:46;;;;;;;2.65;2.20;;;15.70;85.00;;;;;;2088009;28;20029;-71
2022/05/26 00:39:47;;;;;;;3.20;2.40;;;15.60;84.80;;;;;;2088082;28;20033;-71
2022/05/26 00:40:48;;;;;;;3.28;2.47;;;15.60;84.90;;;;;;2087148;28;20071;-71
2022/05/26 00:42:01;;;;;;;2.75;2.30;;;15.60;85.00;;;;;;2087176;28;20040;-71
2022/05/26 00:43:02;;;;;;;2.78;2.20;;;15.50;84.90;;;;;;2086978;28;20112;-71
2022/05/26 00:44:03;;;;;;;2.88;2.25;;;15.50;85.00;;;;;;2087200;28;20096;-72
2022/05/26 00:45:06;;;;;;;2.83;2.10;;;15.50;84.80;;;;;;2087868;28;20401;-71
2022/05/26 00:46:18;;;;;;;3.00;2.20;;;15.50;84.60;;;;;;2087803;28;20099;-71
2022/05/26 00:47:27;;;;;;;2.33;2.00;;;15.50;84.60;;;;;;2087858;28;20036;-71
2022/05/26 00:48:39;;;;;;;3.00;2.10;;;15.40;84.70;;;;;;2087821;28;20275;-70
2022/05/26 00:49:55;;;;;;;2.33;2.10;;;15.40;84.70;;;;;;2088040;28;20279;-70
2022/05/26 00:51:00;;;;;;;3.22;2.10;;;15.40;84.70;;;;;;2087726;28;20025;-70
2022/05/26 00:52:02;;;;;;;2.97;2.20;;;15.30;84.70;;;;;;2087836;28;20021;-71
2022/05/26 00:53:13;;;;;;;3.13;2.10;;;15.30;85.00;;;;;;2087689;28;20438;-71
2022/05/26 00:54:17;;;;;;;;;;;15.30;85.10;;;;;;2088319;28;20472;-72
2022/05/26 00:55:31;;;;;;;2.40;2.08;;;15.30;85.10;;;;;;2087635;28;19909;-71
2022/05/26 00:56:38;;;;;;;2.50;1.95;;;15.20;85.00;;;;;;2087664;28;20032;-70
2022/05/26 00:57:50;;;;;;;3.28;2.20;;;15.20;85.00;;;;;;2087891;28;20095;-70
2022/05/26 00:58:59;;;;;;;2.65;2.20;;;15.20;85.00;;;;;;2087711;28;20040;-70
2022/05/26 01:00:01;;;;;;;2.88;2.10;;;15.20;85.10;;;;;;2086996;28;20071;-71
2022/05/26 01:01:02;;;;;;;2.17;2.00;;;15.20;85.00;;;;;;2086903;28;20403;-72
2022/05/26 01:02:03;;;;;;;2.35;2.13;;;15.20;85.20;;;;;;2087624;28;20104;-71
2022/05/26 01:03:18;;;;;;;3.25;2.00;;;15.10;85.30;;;;;;2086706;28;20035;-71
2022/05/26 01:04:22;;;;;;;4.03;2.00;;;15.20;85.30;;;;;;2080670;28;20025;-71
2022/05/26 01:05:28;;;;;;;2.30;2.10;;;15.20;85.40;;;;;;2087074;28;20032;-71
2022/05/26 01:07:01;;;;;;;3.35;2.10;;;15.20;85.20;;;;;;2087561;28;20028;-70
2022/05/26 01:08:02;;;;;;;3.70;1.75;;;15.20;85.10;;;;;;2082020;28;20612;-71
2022/05/26 01:09:05;;;;;;;2.58;2.10;;;15.20;84.80;;;;;;2086586;28;20024;-70
2022/05/26 01:10:09;;;;;;;2.15;1.90;;;15.20;85.00;;;;;;2086917;28;20029;-72
2022/05/26 01:11:10;;;;;;;2.83;1.95;;;15.20;85.20;;;;;;2087189;28;20028;-69
2022/05/26 01:12:11;;;;;;;2.28;2.00;;;15.20;85.20;;;;;;2087960;28;20388;-70
2022/05/26 01:13:15;;;;;;;2.60;2.00;;;15.20;85.00;;;;;;2087493;28;20384;-70
2022/05/26 01:14:24;;;;;;;4.18;1.90;;;15.20;85.00;;;;;;2087644;28;20502;-70
2022/05/26 01:15:32;;;;;;;2.00;1.80;;;15.20;85.20;;;;;;2087783;28;20073;-71
2022/05/26 01:16:48;;;;;;;2.85;1.90;;;15.20;85.40;;;;;;2087114;28;20489;-70
2022/05/26 01:18:24;;;;;;;2.30;2.08;;;15.20;85.50;;;;;;2087001;28;20025;-70
2022/05/26 01:19:56;;;;;;;2.33;1.90;;;15.10;85.40;;;;;;2080276;28;20244;-70
2022/05/26 01:21:09;;;;;;;3.08;1.80;;;15.10;85.50;;;;;;2087601;28;20063;-70
2022/05/26 01:22:31;;;;;;;2.33;2.10;;;15.10;85.70;;;;;;2078734;28;20151;-70
2022/05/26 01:23:52;;;;;;;2.33;2.10;;;15.10;86.00;;;;;;2081655;28;20060;-71
2022/05/26 01:25:18;;;;;;;2.92;2.25;;;15.10;86.50;;;;;;2087685;28;20469;-71
2022/05/26 01:27:02;;;;;;;2.50;2.17;;;15.10;87.20;;;;;;2087649;28;20483;-70
2022/05/26 01:28:31;;;;;;;2.80;2.50;;;15.10;88.00;;;;;;2087896;28;20029;-71
2022/05/26 01:29:51;;;;;;;3.90;2.50;;;15.00;88.60;;;;;;2087969;28;20024;-71
2022/05/26 01:30:58;;;;;;;3.33;2.70;;;15.00;89.30;;;;;;2087712;28;20027;-71
2022/05/26 01:32:17;;;;;;;4.63;2.45;;;15.00;89.70;;;;;;2087649;28;20029;-71
2022/05/26 01:33:29;;;;;;;3.00;2.70;;;15.00;90.10;;;;;;2087756;28;20386;-71
2022/05/26 01:34:58;;;;;;;3.20;2.67;;;15.10;90.20;;;;;;2087477;28;20025;-71
2022/05/26 01:36:24;;;;;;;3.13;2.80;;;15.00;90.30;;;;;;2082348;28;20048;-71
2022/05/26 01:37:54;;;;;;;4.05;3.10;;;15.00;90.50;;;;;;2082486;28;20032;-71
2022/05/26 01:39:06;;;;;;;3.83;3.00;;;15.00;90.70;;;;;;2065814;28;20153;-71
2022/05/26 01:40:13;;;;;;;3.92;3.00;;;15.00;90.80;;;;;;2087558;28;20178;-71
2022/05/26 01:41:38;;;;;;;3.45;2.75;;;15.00;91.00;;;;;;2087500;28;20104;-71
2022/05/26 01:42:54;;;;;;;3.10;2.80;;;15.00;91.00;;;;;;2087840;28;20021;-71
2022/05/26 01:44:11;;;;;;;3.65;2.70;;;14.90;91.00;;;;;;2087750;28;20060;-71
2022/05/26 01:45:34;;;;;;;3.30;2.60;;;14.90;91.00;;;;;;2087766;28;20033;-70
2022/05/26 01:46:39;;;;;;;2.95;2.58;;;14.90;91.10;;;;;;2087765;28;20024;-71
2022/05/26 01:47:58;;;;;;;4.18;2.70;;;14.90;91.30;;;;;;2086880;28;20184;-71
2022/05/26 01:49:10;;;;;;;4.18;3.00;;;14.90;91.30;;;;;;2086887;28;20458;-71
2022/05/26 01:50:33;;;;;;;3.47;2.75;;;14.90;91.30;;;;;;2087524;28;20064;-70
2022/05/26 01:51:35;;;;;;;3.20;2.50;;;14.90;91.30;;;;;;2087832;28;20032;-71
2022/05/26 01:52:44;;;;;;;3.00;2.70;;;15.00;91.30;;;;;;2087631;28;20037;-71
2022/05/26 01:53:55;;;;;;;5.70;2.65;;;14.90;91.20;;;;;;2087508;28;20041;-71
2022/05/26 01:55:01;;;;;;;3.90;2.80;;;15.00;91.20;;;;;;2087768;28;20515;-71
2022/05/26 01:56:07;;;;;;;3.70;2.80;;;15.00;91.20;;;;;;2087053;28;20041;-70
2022/05/26 01:57:18;;;;;;;3.30;2.70;;;14.90;91.10;;;;;;2086891;28;20151;-71
2022/05/26 01:58:45;;;;;;;3.03;2.50;;;15.00;90.80;;;;;;2087549;28;20348;-70
2022/05/26 01:59:59;;;;;;;3.03;2.67;;;15.00;90.50;;;;;;2077864;28;20491;-71
2022/05/26 02:01:03;;;;;;;4.57;2.65;;;15.10;90.50;;;;;;2086766;28;20029;-71
2022/05/26 02:02:21;;;;;;;4.50;2.70;;;15.10;90.60;;;;;;2087598;28;20037;-71
2022/05/26 02:05:49;;;;;;;4.45;2.58;;;15.10;90.20;;;;;;2087530;28;20379;-71
2022/05/26 02:07:01;;;;;;;3.95;2.60;;;15.20;90.00;;;;;;2087529;28;20108;-73
2022/05/26 02:08:11;;;;;;;3.42;2.47;;;15.20;89.70;;;;;;2087195;28;20333;-71
2022/05/26 02:09:23;;;;;;;2.63;2.20;;;15.20;89.10;;;;;;2087469;28;20037;-71
2022/05/26 02:10:35;;;;;;;2.92;2.30;;;15.20;88.60;;;;;;2087928;28;20027;-72
2022/05/26 02:11:42;;;;;;;3.85;2.40;;;15.30;88.20;;;;;;2088230;28;20041;-72
2022/05/26 02:12:47;;;;;;;3.35;2.10;;;15.30;87.60;;;;;;2087439;28;20029;-71
2022/05/26 02:13:57;;;;;;;2.35;2.08;;;15.30;87.20;;;;;;2087459;28;20044;-71
2022/05/26 02:15:11;;;;;;;2.88;2.15;;;15.40;86.70;;;;;;2087203;28;20396;-71
2022/05/26 02:16:18;;;;;;;2.30;1.90;;;15.40;86.00;;;;;;2087568;28;20040;-72
2022/05/26 02:17:26;;;;;;;2.45;2.10;;;15.40;85.80;;;;;;2087810;28;20051;-72
2022/05/26 02:18:41;;;;;;;2.70;2.00;;;15.50;85.70;;;;;;2086900;28;20047;-72
2022/05/26 02:19:48;;;;;;;7.53;2.10;;;15.50;85.60;;;;;;2087176;28;20153;-72
2022/05/26 02:21:09;;;;;;;2.63;1.70;;;15.50;84.50;;;;;;2086601;28;20391;-71
2022/05/26 02:22:23;;;;;;;2.78;1.70;;;15.60;82.80;;;;;;2088788;28;20159;-72
2022/05/26 02:23:28;;;;;;;1.70;1.60;;;15.60;83.30;;;;;;2089268;28;20491;-71
2022/05/26 02:24:39;;;;;;;2.47;1.63;;;15.60;83.00;;;;;;2089184;28;20108;-71
2022/05/26 02:25:40;;;;;;;1.98;1.45;;;15.70;81.80;;;;;;2089306;28;20151;-71
2022/05/26 02:26:40;;;;;;;1.52;1.40;;;15.70;81.50;;;;;;2088534;28;20440;-71
2022/05/26 02:27:42;;;;;;;2.80;1.60;;;15.70;81.60;;;;;;2080090;28;20093;-71
2022/05/26 02:30:06;;;;;;;1.73;1.50;;;15.70;80.70;;;;;;2088362;28;20037;-72
2022/05/26 02:31:07;;;;;;;1.55;1.40;;;15.80;80.00;;;;;;2088169;28;20375;-70
2022/05/26 02:32:10;;;;;;;1.65;1.48;;;15.80;80.10;;;;;;2088344;28;20041;-71
2022/05/26 02:33:14;;;;;;;2.67;1.30;;;15.80;79.90;;;;;;2088391;28;20017;-71
2022/05/26 02:34:17;;;;;;;1.75;1.40;;;15.80;80.00;;;;;;2088734;28;20017;-72
2022/05/26 02:35:29;;;;;;;1.45;1.35;;;15.80;79.60;;;;;;2088155;28;20056;-71
2022/05/26 02:36:33;;;;;;;2.15;1.42;;;15.90;79.80;;;;;;2088116;28;20031;-70
2022/05/26 02:37:35;;;;;;;2.20;1.40;;;15.90;79.20;;;;;;2088881;28;20036;-71
2022/05/26 02:38:36;;;;;;;1.60;1.40;;;15.90;79.20;;;;;;2088893;28;20518;-72
2022/05/26 02:39:37;;;;;;;2.30;1.50;;;15.90;78.90;;;;;;2089023;28;20040;-70
2022/05/26 02:40:37;;;;;;;2.58;1.50;;;15.90;78.90;;;;;;2088177;28;20051;-71
2022/05/26 02:41:39;;;;;;;2.22;1.40;;;15.80;78.30;;;;;;2079875;28;20175;-71
2022/05/26 02:42:48;;;;;;;1.92;1.65;;;15.90;78.40;;;;;;2088457;28;20025;-71
2022/05/26 02:43:49;;;;;;;2.47;1.35;;;15.80;78.60;;;;;;2088715;28;20283;-71
2022/05/26 02:44:50;;;;;;;2.95;1.50;;;15.90;78.20;;;;;;2088950;28;20104;-72
2022/05/26 02:46:05;;;;;;;1.85;1.38;;;15.80;77.90;;;;;;2088920;28;20118;-72
2022/05/26 02:47:45;;;;;;;3.20;1.75;;;15.80;78.30;;;;;;2088676;28;20679;-72
2022/05/26 02:49:11;;;;;;;2.00;1.55;;;15.80;78.20;;;;;;2088896;28;20037;-71
2022/05/26 02:50:26;;;;;;;1.73;1.40;;;15.80;79.20;;;;;;2087944;28;20513;-71
2022/05/26 02:51:52;;;;;;;1.50;1.40;;;15.80;78.80;;;;;;2088597;28;20128;-71
2022/05/26 02:53:11;;;;;;;2.33;1.50;;;15.80;78.90;;;;;;2088272;28;20333;-72
2022/05/26 02:54:23;;;;;;;2.08;1.60;;;15.70;79.00;;;;;;2088050;28;20087;-71
2022/05/26 02:55:31;;;;;;;2.83;1.50;;;15.70;79.10;;;;;;2088701;28;20032;-70
2022/05/26 02:56:47;;;;;;;1.50;1.27;;;15.70;78.80;;;;;;2079728;28;20041;-71
2022/05/26 02:58:09;;;;;;;6.97;1.75;;;15.70;79.00;;;;;;2075750;28;20030;-71
2022/05/26 02:59:25;;;;;;;3.05;1.50;;;15.70;79.20;;;;;;2088939;28;20099;-71
2022/05/26 03:00:50;;;;;;;2.85;1.50;;;15.70;79.30;;;;;;2089031;28;20037;-71
2022/05/26 03:02:02;;;;;;;2.92;1.50;;;15.70;79.40;;;;;;2088529;28;20475;-71
2022/05/26 03:03:27;;;;;;;3.03;1.40;;;15.60;79.70;;;;;;2088824;28;20274;-71
2022/05/26 03:04:48;;;;;;;2.60;1.40;;;15.60;79.80;;;;;;2088373;28;20278;-72
2022/05/26 03:05:56;;;;;;;2.05;1.27;;;15.60;79.50;;;;;;2089205;28;20020;-72
2022/05/26 03:07:00;;;;;;;3.47;1.50;;;15.60;79.60;;;;;;2089237;28;20025;-72
2022/05/26 03:08:04;;;;;;;2.65;1.60;;;15.60;79.70;;;;;;2089282;28;20017;-72
2022/05/26 03:09:06;;;;;;;2.13;1.50;;;15.60;79.40;;;;;;2088917;28;20033;-71
2022/05/26 03:10:08;;;;;;;2.13;1.40;;;15.60;79.70;;;;;;2088660;28;20029;-70
2022/05/26 03:11:15;;;;;;;2.15;1.40;;;15.60;79.40;;;;;;2088941;28;20028;-69
2022/05/26 03:12:26;;;;;;;2.17;1.40;;;15.60;79.70;;;;;;2088892;28;20033;-70
2022/05/26 03:13:27;;;;;;;2.03;1.50;;;15.60;79.90;;;;;;2088783;28;20538;-72
2022/05/26 03:14:28;;;;;;;1.50;1.30;;;15.60;79.50;;;;;;2087941;28;20029;-71
2022/05/26 03:15:31;;;;;;;2.08;1.40;;;15.60;79.40;;;;;;2079771;28;20549;-71
2022/05/26 03:16:31;;;;;;;2.05;1.30;;;15.60;79.60;;;;;;2080101;28;20026;-69
2022/05/26 03:17:32;;;;;;;3.55;1.30;;;15.60;79.40;;;;;;2088054;28;20525;-71
2022/05/26 03:18:33;;;;;;;2.38;1.20;;;15.60;79.20;;;;;;2088716;28;20115;-74
2022/05/26 03:19:33;;;;;;;1.88;1.42;;;15.60;79.30;;;;;;2088890;28;20025;-71
2022/05/26 03:20:34;;;;;;;1.92;1.30;;;15.60;79.60;;;;;;2088250;28;20133;-71
2022/05/26 03:21:35;;;;;;;2.50;1.30;;;15.60;79.70;;;;;;2088446;28;20040;-71
2022/05/26 03:22:36;;;;;;;1.83;1.33;;;15.60;79.70;;;;;;2088918;28;20111;-71
2022/05/26 03:23:37;;;;;;;2.22;1.48;;;15.60;79.50;;;;;;2088672;28;20025;-71
2022/05/26 03:24:38;;;;;;;3.85;1.48;;;15.60;79.50;;;;;;2088631;28;20017;-72
2022/05/26 03:25:46;;;;;;;1.20;1.10;;;15.60;79.40;;;;;;2088650;28;20503;-73
2022/05/26 03:26:47;;;;;;;1.92;1.42;;;15.60;79.40;;;;;;2088786;28;20052;-72
2022/05/26 03:27:47;;;;;;;1.48;1.27;;;15.60;79.10;;;;;;2088825;28;20021;-72
2022/05/26 03:28:48;;;;;;;3.83;1.60;;;15.60;79.30;;;;;;2088711;28;20031;-71
2022/05/26 03:29:49;;;;;;;2.65;1.30;;;15.60;78.70;;;;;;2088045;28;20037;-73
2022/05/26 03:30:49;;;;;;;1.90;1.40;;;15.60;78.60;;;;;;2088016;28;20341;-72
2022/05/26 03:31:50;;;;;;;3.53;1.40;;;15.60;78.90;;;;;;2088966;28;20082;-71
2022/05/26 03:32:50;;;;;;;2.97;1.42;;;15.60;78.50;;;;;;2087437;28;20060;-72
2022/05/26 03:40:52;;;;;;;2.08;1.33;;;15.70;78.50;;;;;;2088329;28;20618;-71
2022/05/26 03:41:53;;;;;;;2.08;1.50;;;15.70;78.80;;;;;;2088474;28;20033;-71
2022/05/26 03:42:53;;;;;;;1.98;1.60;;;15.70;78.30;;;;;;2088523;28;20032;-72
2022/05/26 03:43:59;;;;;;;1.80;1.30;;;15.70;78.40;;;;;;2088397;28;20123;-71
2022/05/26 03:45:02;;;;;;;2.22;1.30;;;15.70;78.40;;;;;;2088318;28;20028;-71
2022/05/26 03:46:03;;;;;;;1.75;1.23;;;15.80;78.40;;;;;;2087954;28;20059;-71
2022/05/26 03:47:04;;;;;;;2.58;1.42;;;15.80;78.60;;;;;;2079637;28;20084;-71
2022/05/26 03:48:06;;;;;;;2.83;1.33;;;15.80;78.30;;;;;;2087841;28;20033;-71
2022/05/26 03:49:07;;;;;;;2.53;1.33;;;15.80;78.50;;;;;;2088540;28;20179;-71
2022/05/26 03:50:08;;;;;;;2.55;1.38;;;15.80;78.30;;;;;;2088381;28;20445;-71
2022/05/26 03:51:09;;;;;;;3.10;1.40;;;15.90;78.40;;;;;;2088403;28;20387;-70
2022/05/26 03:52:10;;;;;;;2.25;1.20;;;15.80;78.40;;;;;;2087698;28;20124;-71
2022/05/26 03:53:11;;;;;;;1.77;1.30;;;15.90;78.50;;;;;;2079501;28;20427;-71
2022/05/26 03:54:12;;;;;;;2.35;1.33;;;15.90;78.30;;;;;;2087570;28;20029;-71
2022/05/26 03:55:12;;;;;;;1.88;1.30;;;15.90;78.20;;;;;;2087674;28;20079;-71
2022/05/26 03:56:13;;;;;;;1.98;1.10;;;15.90;78.30;;;;;;2087548;28;20079;-71
2022/05/26 03:57:13;;;;;;;1.27;1.17;;;15.90;78.00;;;;;;2087484;28;20120;-71
2022/05/26 03:58:14;;;;;;;3.20;1.30;;;16.00;77.90;;;;;;2087780;28;20494;-72
2022/05/26 03:59:15;;;;;;;2.95;1.45;;;16.00;78.20;;;;;;2088399;28;20054;-72
2022/05/26 04:00:19;;;;;;;2.47;1.50;;;16.00;78.20;;;;;;2088255;28;20037;-71
2022/05/26 04:01:19;;;;;;;2.65;1.17;;;16.00;78.50;;;;;;2088624;28;20032;-72
2022/05/26 04:02:20;;;;;;;2.40;1.23;;;16.10;78.40;;;;;;2088579;28;20017;-72
2022/05/26 04:03:21;;;;;;;2.30;1.30;;;16.10;77.90;;;;;;2088589;28;20387;-73
2022/05/26 04:04:21;;;;;;;2.05;1.20;;;16.20;78.00;;;;;;2088358;28;20021;-70
2022/05/26 04:05:22;;;;;;;1.80;1.30;;;16.20;77.80;;;;;;2088384;28;20036;-71
2022/05/26 04:06:24;;;;;;;2.20;1.40;;;16.30;77.60;;;;;;2088537;28;20021;-70
2022/05/26 04:07:24;;;;;;;1.33;1.20;;;16.40;77.40;;;;;;2087831;28;20088;-71
2022/05/26 04:08:25;;;;;;;1.83;1.30;;;16.50;77.20;;;;;;2079932;28;20044;-70
2022/05/26 04:09:26;;;;;;;1.40;1.30;;;16.70;76.60;;;;;;2080165;28;20410;-70
2022/05/26 04:10:27;;;;;;;1.35;1.17;;;16.80;76.30;;;;;;2088557;28;20031;-71
2022/05/26 04:11:27;;;;;;;1.85;1.10;;;16.90;76.00;;;;;;2089505;28;20032;-70
2022/05/26 04:12:28;;;;;;;2.38;1.10;;;17.00;75.60;;;;;;2089247;28;20029;-70
2022/05/26 04:13:30;;;;;;;3.15;1.40;;;17.10;75.40;;;;;;2088650;28;20036;-70
2022/05/26 04:14:31;;;;;;;3.28;1.45;;;17.20;74.10;;;;;;2087387;28;20059;-70
2022/05/26 04:15:32;;;;;;;2.80;1.23;;;17.30;73.30;;;;;;2087768;28;20040;-70
2022/05/26 04:16:33;;;;;;;1.38;1.20;;;17.40;73.30;;;;;;2088546;28;20112;-70
2022/05/26 04:17:35;;;;;;;1.95;1.40;;;17.50;73.20;;;;;;2087527;28;20064;-71
2022/05/26 04:18:37;;;;;;;2.83;1.30;;;17.50;72.80;;;;;;2087443;28;20033;-71
2022/05/26 04:19:41;;;;;;;1.30;1.20;;;17.50;72.80;;;;;;2087384;28;20436;-71
2022/05/26 04:20:41;;;;;;;1.60;1.20;;;17.50;72.90;;;;;;2087313;28;20353;-71
2022/05/26 04:22:15;;;;;;;3.45;1.23;;;17.50;73.20;;;;;;2088138;28;20033;-70
2022/05/26 04:23:03;;;;;;;3.65;1.30;;;17.40;73.50;;;;;;2088134;28;20032;-70
2022/05/26 04:24:03;;;;;;;1.13;1.02;;;17.40;73.60;;;;;;2087943;28;20059;-70
2022/05/26 04:25:05;;;;;;;1.55;1.20;;;17.40;73.80;;;;;;2087801;28;20032;-70
2022/05/26 04:26:08;;;;;;;2.17;1.30;;;17.30;74.50;;;;;;2087963;28;20079;-70
2022/05/26 04:27:09;;;;;;;2.97;1.40;;;17.20;74.50;;;;;;2088128;28;20123;-70
2022/05/26 04:28:09;;;;;;;2.50;1.30;;;17.20;74.50;;;;;;2088063;28;20024;-70
2022/05/26 04:29:16;;;;;;;2.50;1.50;;;17.10;74.60;;;;;;2088098;28;20021;-71
2022/05/26 04:30:16;;;;;;;1.45;1.20;;;17.00;74.50;;;;;;2087944;28;20021;-71
2022/05/26 04:31:17;;;;;;;3.95;1.27;;;17.10;74.80;;;;;;2088081;28;20059;-71
2022/05/26 04:32:19;;;;;;;3.83;1.50;;;17.20;74.90;;;;;;2087390;28;20514;-70
2022/05/26 04:33:19;;;;;;;2.92;1.30;;;17.30;74.40;;;;;;2087304;28;20025;-70
2022/05/26 04:34:20;;;;;;;1.20;1.10;;;17.30;73.70;;;;;;2087245;28;20033;-71
2022/05/26 04:35:21;;;;;;;2.38;1.20;;;17.50;73.70;;;;;;2087271;28;20151;-71
2022/05/26 04:36:22;;;;;;;2.28;1.20;;;17.50;73.50;;;;;;2088087;28;20323;-72
2022/05/26 04:37:27;;;;;;;3.50;1.35;;;17.60;73.40;;;;;;2088021;28;20056;-71
2022/05/26 04:38:28;;;;;;;3.72;1.30;;;17.70;73.20;;;;;;2087433;28;20021;-71
2022/05/26 04:39:29;;;;;;;1.33;1.20;;;17.70;73.00;;;;;;2087572;28;20033;-71
2022/05/26 04:40:29;;;;;;;1.88;1.20;;;17.70;73.10;;;;;;2087357;28;20013;-71
2022/05/26 04:41:30;;;;;;;3.05;1.40;;;17.80;73.70;;;;;;2087386;28;20037;-71
2022/05/26 04:42:30;;;;;;;1.52;1.05;;;17.80;72.70;;;;;;2088232;28;20391;-71
2022/05/26 04:43:32;;;;;;;2.53;1.20;;;17.70;72.90;;;;;;2087985;28;20028;-70
2022/05/26 04:44:38;;;;;;;2.70;1.20;;;17.70;73.00;;;;;;2087479;28;20029;-70
2022/05/26 04:45:39;;;;;;;1.80;1.30;;;17.70;72.80;;;;;;2087565;28;20124;-70
2022/05/26 04:46:40;;;;;;;2.13;1.20;;;17.70;72.50;;;;;;2087546;28;20102;-70
2022/05/26 04:47:41;;;;;;;1.98;1.30;;;17.60;72.60;;;;;;2087833;28;20044;-70
2022/05/26 04:48:42;;;;;;;1.80;1.20;;;17.60;73.00;;;;;;2088440;28;20021;-70
2022/05/26 04:49:43;;;;;;;2.70;1.20;;;17.60;73.10;;;;;;2088888;28;20047;-70
2022/05/26 04:50:43;;;;;;;1.73;1.20;;;17.70;72.80;;;;;;2088676;28;20151;-71
2022/05/26 04:51:45;;;;;;;2.00;1.20;;;17.60;73.50;;;;;;2088326;28;20044;-71
2022/05/26 04:52:45;;;;;;;1.30;1.20;;;17.60;73.30;;;;;;2088253;28;20459;-70
2022/05/26 04:53:46;;;;;;;2.72;1.20;;;17.60;73.30;;;;;;2088003;28;20444;-71
2022/05/26 04:54:47;;;;;;;3.92;1.23;;;17.60;73.60;;;;;;2087904;28;20380;-70
2022/05/26 04:55:53;;;;;;;2.97;1.25;;;17.60;72.90;;;;;;2088257;28;20120;-71
2022/05/26 04:56:58;;;;;;;1.90;1.10;;;17.60;73.80;;;;;;2087556;28;20033;-71
2022/05/26 04:57:58;;;;;;;1.83;1.20;;;17.60;74.20;;;;;;2087257;28;20124;-70
2022/05/26 04:58:59;;;;;;;1.58;1.23;;;17.50;73.70;;;;;;2079053;28;20040;-70
2022/05/26 05:00:00;;;;;;;2.75;1.08;;;17.60;73.80;;;;;;2070651;28;20030;-71
2022/05/26 05:01:10;;;;;;;2.30;1.30;;;17.50;72.90;;;;;;2087267;28;20040;-72
2022/05/26 05:02:14;;;;;;;2.53;1.20;;;17.50;74.10;;;;;;2087290;28;20037;-72
2022/05/26 05:03:14;;;;;;;2.00;1.13;;;17.50;74.10;;;;;;2087319;28;20077;-72
2022/05/26 05:04:15;;;;;;;2.88;1.30;;;17.60;74.20;;;;;;2087583;28;20055;-72
2022/05/26 05:05:15;;;;;;;1.92;1.40;;;17.60;73.10;;;;;;2087394;28;20449;-69
2022/05/26 05:06:17;;;;;;;2.45;1.20;;;17.60;73.30;;;;;;2087411;28;20100;-70
2022/05/26 05:07:18;;;;;;;1.35;1.25;;;17.60;73.70;;;;;;2088054;28;20077;-70
2022/05/26 05:08:19;;;;;;;2.63;1.13;;;17.70;74.00;;;;;;2087488;28;20473;-71
2022/05/26 05:09:19;;;;;;;3.03;1.17;;;17.80;73.70;;;;;;2087397;28;20032;-70
2022/05/26 05:10:20;;;;;;;2.60;1.35;;;17.80;73.10;;;;;;2078856;28;20029;-71
2022/05/26 05:11:21;;;;;;;1.90;1.10;;;17.70;73.20;;;;;;2078901;28;20047;-71
2022/05/26 05:12:24;;;;;;;1.20;1.10;;;17.70;73.90;;;;;;2087229;28;20570;-71
2022/05/26 05:13:24;;;;;;;2.05;1.30;;;17.70;74.00;;;;;;2088042;28;20032;-71
2022/05/26 05:14:25;;;;;;;1.27;1.15;;;17.70;73.80;;;;;;2086723;28;20067;-72
2022/05/26 05:15:36;;;;;;;2.33;1.50;;;17.60;73.50;;;;;;2087151;28;20541;-71
2022/05/26 05:16:44;;;;;;;;;;;17.50;73.40;;;;;;2088230;28;20497;-70
2022/05/26 05:17:44;;;;;;;2.92;1.30;;;17.40;73.40;;;;;;2087754;28;20379;-70
2022/05/26 05:18:46;;;;;;;1.88;1.20;;;17.40;74.20;;;;;;2087032;28;20040;-72
2022/05/26 05:19:47;;;;;;;1.95;1.10;;;17.40;74.60;;;;;;2087233;28;20128;-70
2022/05/26 05:20:48;;;;;;;3.38;1.25;;;17.40;74.90;;;;;;2087675;28;20418;-70
2022/05/26 05:21:57;;;;;;;1.52;1.20;;;17.40;74.80;;;;;;2087019;28;20110;-70
2022/05/26 05:23:04;;;;;;;2.67;1.30;;;17.40;75.10;;;;;;2086948;28;20032;-71
2022/05/26 05:24:18;;;;;;;2.08;1.27;;;17.50;75.20;;;;;;2086816;28;20392;-70
2022/05/26 05:25:26;;;;;;;1.75;1.25;;;17.50;75.60;;;;;;2087262;28;20052;-71
2022/05/26 05:26:30;;;;;;;1.55;1.25;;;17.50;74.90;;;;;;2087821;28;20075;-70
2022/05/26 05:27:38;;;;;;;2.75;1.20;;;17.50;74.40;;;;;;2087066;28;20255;-70
2022/05/26 05:28:44;;;;;;;3.28;1.20;;;17.50;74.90;;;;;;2087263;28;20041;-71
2022/05/26 05:29:46;;;;;;;3.10;1.45;;;17.50;75.40;;;;;;2087753;28;20091;-71
2022/05/26 05:30:53;;;;;;;1.88;1.30;;;17.50;76.30;;;;;;2078687;28;20129;-71
2022/05/26 05:31:58;;;;;;;2.17;1.15;;;17.50;75.80;;;;;;2079619;28;20382;-71
2022/05/26 05:33:13;;;;;;;3.33;1.20;;;17.50;75.50;;;;;;2087273;28;20230;-71
2022/05/26 05:34:23;;;;;;;1.92;1.30;;;17.50;75.60;;;;;;2087447;28;20017;-71
2022/05/26 05:35:31;;;;;;;2.65;1.20;;;17.50;74.70;;;;;;2087721;28;20025;-71
2022/05/26 05:36:34;;;;;;;4.18;1.30;;;17.50;75.50;;;;;;2087207;28;20083;-71
2022/05/26 05:37:34;;;;;;;3.92;1.35;;;17.50;75.10;;;;;;2078831;28;20033;-72
2022/05/26 05:38:38;;;;;;;2.53;1.20;;;17.50;75.20;;;;;;2071246;28;20037;-72
2022/05/26 05:39:39;;;;;;;2.80;1.30;;;17.50;75.20;;;;;;2079848;28;20033;-72
2022/05/26 05:40:40;;;;;;;2.58;1.30;;;17.50;75.10;;;;;;2087340;28;20037;-72
2022/05/26 05:41:40;;;;;;;3.05;1.17;;;17.50;75.60;;;;;;2087451;28;20223;-70
2022/05/26 05:42:41;;;;;;;1.45;1.20;;;17.60;76.00;;;;;;2087619;28;20108;-72
2022/05/26 05:43:42;;;;;;;2.65;1.20;;;17.60;75.50;;;;;;2087273;28;20021;-71
2022/05/26 05:44:43;;;;;;;2.60;1.35;;;17.70;75.70;;;;;;2087637;28;20446;-71
2022/05/26 05:45:45;;;;;;;3.10;1.40;;;17.70;75.60;;;;;;2087521;28;20022;-73
2022/05/26 05:46:54;;;;;;;1.77;1.20;;;17.80;75.60;;;;;;2087515;28;20033;-72
2022/05/26 05:47:55;;;;;;;1.98;1.20;;;17.80;74.60;;;;;;2088415;28;20029;-72
2022/05/26 05:48:56;;;;;;;2.97;1.40;;;17.80;74.50;;;;;;2087639;28;20025;-72
2022/05/26 05:49:56;;;;;;;1.85;1.20;;;17.80;74.70;;;;;;2087392;28;20109;-73
2022/05/26 05:50:57;;;;;;;2.83;1.27;;;17.80;74.50;;;;;;2078995;28;20075;-72
2022/05/26 05:52:08;;;;;;;2.78;1.30;;;17.90;75.80;;;;;;2079326;28;20029;-72
2022/05/26 05:53:09;;;;;;;2.50;1.33;;;17.90;74.70;;;;;;2088204;28;20061;-71
2022/05/26 05:54:10;;;;;;;2.60;1.10;;;17.90;74.80;;;;;;2087183;28;20216;-72